Terminal Aerodrome Forecast
Issued by NWS Cleveland, OH

Home | Current Version | Previous Version | Graphics & Text | Print | Product List | Glossary On
Versions: 1 2 3 4 5 6 7 8 9 10 11 12 13 14 15
000
FTUS41 KCLE 191226 AAB
TAFCAK
TAF AMD
KCAK 191226Z 1912/2012 18011KT 6SM -SHRA OVC015 WS020/21040KT
      TEMPO 1912/1914 3SM -SHRA
     FM191400 19012KT 3SM SHRA BKN008 OVC015 WS020/21045KT
     FM192000 21014G20KT 6SM BR VCSH BKN015 OVC050=

USA.gov is the U.S. government's official web portal to all federal, state and local government web resources and services.